sensor_id;sensor_type;location;lat;lon;timestamp;P1;durP1;ratioP1;P2;durP2;ratioP2
55364;SDS011;41245;45.384;20.390;2022-08-19T00:00:07;16.50;;;7.93;;
55364;SDS011;41245;45.384;20.390;2022-08-19T00:02:35;23.55;;;8.73;;
55364;SDS011;41245;45.384;20.390;2022-08-19T00:05:01;18.17;;;7.68;;
55364;SDS011;41245;45.384;20.390;2022-08-19T00:07:28;16.88;;;7.60;;
55364;SDS011;41245;45.384;20.390;2022-08-19T00:09:54;12.88;;;8.07;;
55364;SDS011;41245;45.384;20.390;2022-08-19T00:12:21;21.25;;;8.73;;
55364;SDS011;41245;45.384;20.390;2022-08-19T00:14:46;11.40;;;8.40;;
55364;SDS011;41245;45.384;20.390;2022-08-19T00:17:12;14.18;;;8.13;;
55364;SDS011;41245;45.384;20.390;2022-08-19T00:19:38;14.45;;;7.50;;
55364;SDS011;41245;45.384;20.390;2022-08-19T00:22:04;19.25;;;7.97;;
55364;SDS011;41245;45.384;20.390;2022-08-19T00:24:30;11.77;;;7.80;;
55364;SDS011;41245;45.384;20.390;2022-08-19T00:26:57;15.35;;;8.35;;
55364;SDS011;41245;45.384;20.390;2022-08-19T00:29:23;22.45;;;9.35;;
55364;SDS011;41245;45.384;20.390;2022-08-19T00:31:50;22.52;;;7.97;;
55364;SDS011;41245;45.384;20.390;2022-08-19T00:36:45;16.88;;;10.55;;
55364;SDS011;41245;45.384;20.390;2022-08-19T00:39:11;13.68;;;9.88;;
55364;SDS011;41245;45.384;20.390;2022-08-19T00:41:39;16.13;;;9.02;;
55364;SDS011;41245;45.384;20.390;2022-08-19T00:44:10;15.18;;;8.75;;
55364;SDS011;41245;45.384;20.390;2022-08-19T00:46:40;19.50;;;9.30;;
55364;SDS011;41245;45.384;20.390;2022-08-19T00:49:19;16.90;;;9.07;;
55364;SDS011;41245;45.384;20.390;2022-08-19T00:52:26;18.08;;;9.30;;
55364;SDS011;41245;45.384;20.390;2022-08-19T00:54:54;18.90;;;9.07;;
55364;SDS011;41245;45.384;20.390;2022-08-19T00:57:44;29.17;;;9.77;;
55364;SDS011;41245;45.384;20.390;2022-08-19T01:00:11;18.27;;;8.93;;
55364;SDS011;41245;45.384;20.390;2022-08-19T01:02:41;21.42;;;9.73;;
55364;SDS011;41245;45.384;20.390;2022-08-19T01:05:11;22.63;;;10.07;;
55364;SDS011;41245;45.384;20.390;2022-08-19T01:07:40;21.85;;;10.45;;
55364;SDS011;41245;45.384;20.390;2022-08-19T01:10:08;23.05;;;10.15;;
55364;SDS011;41245;45.384;20.390;2022-08-19T01:12:37;17.30;;;9.68;;
55364;SDS011;41245;45.384;20.390;2022-08-19T01:15:08;17.65;;;9.50;;
55364;SDS011;41245;45.384;20.390;2022-08-19T01:17:36;14.55;;;9.05;;
55364;SDS011;41245;45.384;20.390;2022-08-19T01:20:04;17.08;;;9.35;;
55364;SDS011;41245;45.384;20.390;2022-08-19T01:22:43;13.23;;;9.60;;
55364;SDS011;41245;45.384;20.390;2022-08-19T01:25:22;14.68;;;9.35;;
55364;SDS011;41245;45.384;20.390;2022-08-19T01:28:02;19.35;;;10.38;;
55364;SDS011;41245;45.384;20.390;2022-08-19T01:30:31;16.52;;;9.07;;
55364;SDS011;41245;45.384;20.390;2022-08-19T01:32:59;19.13;;;10.00;;
55364;SDS011;41245;45.384;20.390;2022-08-19T01:35:26;22.35;;;10.48;;
55364;SDS011;41245;45.384;20.390;2022-08-19T01:37:54;22.98;;;11.00;;
55364;SDS011;41245;45.384;20.390;2022-08-19T01:40:24;20.15;;;10.02;;
55364;SDS011;41245;45.384;20.390;2022-08-19T01:42:52;24.23;;;10.18;;
55364;SDS011;41245;45.384;20.390;2022-08-19T01:45:19;18.77;;;8.93;;
55364;SDS011;41245;45.384;20.390;2022-08-19T01:47:46;20.60;;;9.70;;
55364;SDS011;41245;45.384;20.390;2022-08-19T01:50:12;22.13;;;10.73;;
55364;SDS011;41245;45.384;20.390;2022-08-19T01:52:39;16.45;;;9.65;;
55364;SDS011;41245;45.384;20.390;2022-08-19T01:55:07;22.63;;;9.23;;
55364;SDS011;41245;45.384;20.390;2022-08-19T01:57:35;23.30;;;11.32;;
55364;SDS011;41245;45.384;20.390;2022-08-19T02:00:03;16.02;;;9.57;;
55364;SDS011;41245;45.384;20.390;2022-08-19T02:02:43;20.50;;;8.95;;
55364;SDS011;41245;45.384;20.390;2022-08-19T02:05:10;18.90;;;9.32;;
55364;SDS011;41245;45.384;20.390;2022-08-19T02:07:37;14.80;;;9.07;;
55364;SDS011;41245;45.384;20.390;2022-08-19T02:10:05;16.73;;;9.25;;
55364;SDS011;41245;45.384;20.390;2022-08-19T02:12:34;22.83;;;9.65;;
55364;SDS011;41245;45.384;20.390;2022-08-19T02:15:00;20.77;;;9.82;;
55364;SDS011;41245;45.384;20.390;2022-08-19T02:17:27;25.80;;;10.35;;
55364;SDS011;41245;45.384;20.390;2022-08-19T02:19:54;25.95;;;10.27;;
55364;SDS011;41245;45.384;20.390;2022-08-19T02:22:21;13.10;;;10.40;;
55364;SDS011;41245;45.384;20.390;2022-08-19T02:24:47;24.02;;;10.98;;
55364;SDS011;41245;45.384;20.390;2022-08-19T02:27:14;27.02;;;12.88;;
55364;SDS011;41245;45.384;20.390;2022-08-19T02:29:40;17.73;;;10.30;;
55364;SDS011;41245;45.384;20.390;2022-08-19T02:32:06;17.13;;;10.77;;
55364;SDS011;41245;45.384;20.390;2022-08-19T02:34:32;15.90;;;9.95;;
55364;SDS011;41245;45.384;20.390;2022-08-19T02:36:59;24.25;;;10.38;;
55364;SDS011;41245;45.384;20.390;2022-08-19T02:39:25;18.83;;;9.13;;
55364;SDS011;41245;45.384;20.390;2022-08-19T02:41:51;23.13;;;10.68;;
55364;SDS011;41245;45.384;20.390;2022-08-19T02:44:18;18.58;;;11.27;;
55364;SDS011;41245;45.384;20.390;2022-08-19T02:46:44;15.70;;;10.43;;
55364;SDS011;41245;45.384;20.390;2022-08-19T02:49:12;22.02;;;10.93;;
55364;SDS011;41245;45.384;20.390;2022-08-19T02:51:41;19.60;;;9.88;;
55364;SDS011;41245;45.384;20.390;2022-08-19T02:54:09;25.67;;;10.88;;
55364;SDS011;41245;45.384;20.390;2022-08-19T02:56:38;23.63;;;12.70;;
55364;SDS011;41245;45.384;20.390;2022-08-19T02:59:05;18.50;;;9.13;;
55364;SDS011;41245;45.384;20.390;2022-08-19T03:01:33;18.70;;;9.95;;
55364;SDS011;41245;45.384;20.390;2022-08-19T03:04:00;13.80;;;9.02;;
55364;SDS011;41245;45.384;20.390;2022-08-19T03:06:28;20.35;;;9.55;;
55364;SDS011;41245;45.384;20.390;2022-08-19T03:08:54;20.50;;;8.80;;
55364;SDS011;41245;45.384;20.390;2022-08-19T03:13:50;19.67;;;8.40;;
55364;SDS011;41245;45.384;20.390;2022-08-19T03:16:19;15.82;;;9.00;;
55364;SDS011;41245;45.384;20.390;2022-08-19T03:18:46;17.02;;;9.55;;
55364;SDS011;41245;45.384;20.390;2022-08-19T03:21:16;14.57;;;9.15;;
55364;SDS011;41245;45.384;20.390;2022-08-19T03:23:43;11.32;;;8.02;;
55364;SDS011;41245;45.384;20.390;2022-08-19T03:26:09;18.67;;;9.75;;
55364;SDS011;41245;45.384;20.390;2022-08-19T03:28:35;12.60;;;8.30;;
55364;SDS011;41245;45.384;20.390;2022-08-19T03:31:05;33.08;;;9.02;;
55364;SDS011;41245;45.384;20.390;2022-08-19T03:33:34;17.80;;;8.30;;
55364;SDS011;41245;45.384;20.390;2022-08-19T03:38:36;18.83;;;10.07;;
55364;SDS011;41245;45.384;20.390;2022-08-19T03:41:05;20.85;;;8.18;;
55364;SDS011;41245;45.384;20.390;2022-08-19T03:46:03;16.90;;;9.43;;
55364;SDS011;41245;45.384;20.390;2022-08-19T03:48:32;21.73;;;8.32;;
55364;SDS011;41245;45.384;20.390;2022-08-19T03:50:59;17.05;;;7.90;;
55364;SDS011;41245;45.384;20.390;2022-08-19T03:53:26;23.98;;;9.93;;
55364;SDS011;41245;45.384;20.390;2022-08-19T03:55:53;18.63;;;8.35;;
55364;SDS011;41245;45.384;20.390;2022-08-19T03:58:20;18.63;;;9.70;;
55364;SDS011;41245;45.384;20.390;2022-08-19T04:00:46;17.33;;;7.97;;
55364;SDS011;41245;45.384;20.390;2022-08-19T04:03:12;14.02;;;8.15;;
55364;SDS011;41245;45.384;20.390;2022-08-19T04:05:37;14.45;;;8.85;;
55364;SDS011;41245;45.384;20.390;2022-08-19T04:08:04;11.18;;;7.57;;
55364;SDS011;41245;45.384;20.390;2022-08-19T04:10:30;22.90;;;8.65;;
55364;SDS011;41245;45.384;20.390;2022-08-19T04:13:06;18.95;;;8.07;;
55364;SDS011;41245;45.384;20.390;2022-08-19T04:15:38;18.77;;;7.50;;
55364;SDS011;41245;45.384;20.390;2022-08-19T04:18:06;18.30;;;7.75;;
55364;SDS011;41245;45.384;20.390;2022-08-19T04:20:38;25.55;;;8.48;;
55364;SDS011;41245;45.384;20.390;2022-08-19T04:23:08;21.60;;;8.27;;
55364;SDS011;41245;45.384;20.390;2022-08-19T04:25:35;15.38;;;8.30;;
55364;SDS011;41245;45.384;20.390;2022-08-19T04:28:02;13.00;;;6.72;;
55364;SDS011;41245;45.384;20.390;2022-08-19T04:30:28;12.77;;;7.28;;
55364;SDS011;41245;45.384;20.390;2022-08-19T04:32:54;10.48;;;6.45;;
55364;SDS011;41245;45.384;20.390;2022-08-19T04:35:20;16.48;;;6.82;;
55364;SDS011;41245;45.384;20.390;2022-08-19T04:37:45;16.60;;;6.53;;
55364;SDS011;41245;45.384;20.390;2022-08-19T04:40:11;14.95;;;6.70;;
55364;SDS011;41245;45.384;20.390;2022-08-19T04:42:55;11.73;;;6.75;;
55364;SDS011;41245;45.384;20.390;2022-08-19T04:45:21;11.55;;;6.00;;
55364;SDS011;41245;45.384;20.390;2022-08-19T04:47:47;18.60;;;7.30;;
55364;SDS011;41245;45.384;20.390;2022-08-19T04:50:13;14.77;;;6.32;;
55364;SDS011;41245;45.384;20.390;2022-08-19T04:52:39;15.48;;;6.70;;
55364;SDS011;41245;45.384;20.390;2022-08-19T04:55:09;11.32;;;5.88;;
55364;SDS011;41245;45.384;20.390;2022-08-19T04:57:35;13.90;;;5.93;;
55364;SDS011;41245;45.384;20.390;2022-08-19T05:00:07;19.60;;;6.55;;
55364;SDS011;41245;45.384;20.390;2022-08-19T05:02:34;15.25;;;6.25;;
55364;SDS011;41245;45.384;20.390;2022-08-19T05:05:00;14.65;;;6.15;;
55364;SDS011;41245;45.384;20.390;2022-08-19T05:07:26;15.73;;;6.20;;
55364;SDS011;41245;45.384;20.390;2022-08-19T05:09:52;11.75;;;5.70;;
55364;SDS011;41245;45.384;20.390;2022-08-19T05:12:18;19.67;;;6.10;;
55364;SDS011;41245;45.384;20.390;2022-08-19T05:14:44;11.25;;;5.78;;
55364;SDS011;41245;45.384;20.390;2022-08-19T05:17:12;16.83;;;6.50;;
55364;SDS011;41245;45.384;20.390;2022-08-19T05:19:38;18.88;;;6.22;;
55364;SDS011;41245;45.384;20.390;2022-08-19T05:22:23;14.52;;;6.32;;
55364;SDS011;41245;45.384;20.390;2022-08-19T05:24:58;11.35;;;5.55;;
55364;SDS011;41245;45.384;20.390;2022-08-19T05:27:24;18.63;;;6.50;;
55364;SDS011;41245;45.384;20.390;2022-08-19T05:29:49;15.18;;;6.05;;
55364;SDS011;41245;45.384;20.390;2022-08-19T05:32:15;13.98;;;6.13;;
55364;SDS011;41245;45.384;20.390;2022-08-19T05:34:41;19.88;;;6.25;;
55364;SDS011;41245;45.384;20.390;2022-08-19T05:37:07;20.40;;;6.50;;
55364;SDS011;41245;45.384;20.390;2022-08-19T05:39:34;10.35;;;5.85;;
55364;SDS011;41245;45.384;20.390;2022-08-19T05:42:03;6.53;;;5.50;;
55364;SDS011;41245;45.384;20.390;2022-08-19T05:44:33;17.75;;;5.88;;
55364;SDS011;41245;45.384;20.390;2022-08-19T05:49:30;11.90;;;5.90;;
55364;SDS011;41245;45.384;20.390;2022-08-19T05:51:56;16.33;;;6.10;;
55364;SDS011;41245;45.384;20.390;2022-08-19T05:54:24;12.02;;;6.78;;
55364;SDS011;41245;45.384;20.390;2022-08-19T05:56:50;12.13;;;5.50;;
55364;SDS011;41245;45.384;20.390;2022-08-19T05:59:17;18.35;;;6.88;;
55364;SDS011;41245;45.384;20.390;2022-08-19T06:01:46;14.85;;;6.65;;
55364;SDS011;41245;45.384;20.390;2022-08-19T06:04:15;14.00;;;5.90;;
55364;SDS011;41245;45.384;20.390;2022-08-19T06:06:44;19.40;;;5.57;;
55364;SDS011;41245;45.384;20.390;2022-08-19T06:09:14;20.63;;;6.13;;
55364;SDS011;41245;45.384;20.390;2022-08-19T06:11:41;15.25;;;5.82;;
55364;SDS011;41245;45.384;20.390;2022-08-19T06:14:13;10.65;;;4.82;;
55364;SDS011;41245;45.384;20.390;2022-08-19T06:16:42;9.32;;;5.35;;
55364;SDS011;41245;45.384;20.390;2022-08-19T06:19:10;21.20;;;6.60;;
55364;SDS011;41245;45.384;20.390;2022-08-19T06:21:41;19.38;;;8.88;;
55364;SDS011;41245;45.384;20.390;2022-08-19T06:24:10;7.75;;;5.85;;
55364;SDS011;41245;45.384;20.390;2022-08-19T06:26:39;16.90;;;5.95;;
55364;SDS011;41245;45.384;20.390;2022-08-19T06:29:07;12.00;;;6.50;;
55364;SDS011;41245;45.384;20.390;2022-08-19T06:31:34;18.13;;;6.40;;
55364;SDS011;41245;45.384;20.390;2022-08-19T06:34:02;12.35;;;4.82;;
55364;SDS011;41245;45.384;20.390;2022-08-19T06:38:59;13.65;;;5.50;;
55364;SDS011;41245;45.384;20.390;2022-08-19T06:41:35;18.33;;;6.68;;
55364;SDS011;41245;45.384;20.390;2022-08-19T06:44:05;9.70;;;5.05;;
55364;SDS011;41245;45.384;20.390;2022-08-19T06:46:31;22.40;;;7.50;;
55364;SDS011;41245;45.384;20.390;2022-08-19T06:48:57;18.48;;;6.95;;
55364;SDS011;41245;45.384;20.390;2022-08-19T06:51:23;18.30;;;6.22;;
55364;SDS011;41245;45.384;20.390;2022-08-19T06:53:50;14.82;;;7.13;;
55364;SDS011;41245;45.384;20.390;2022-08-19T06:56:20;16.58;;;6.00;;
55364;SDS011;41245;45.384;20.390;2022-08-19T06:58:50;14.23;;;6.78;;
55364;SDS011;41245;45.384;20.390;2022-08-19T07:01:17;13.15;;;6.15;;
55364;SDS011;41245;45.384;20.390;2022-08-19T07:03:44;13.70;;;4.65;;
55364;SDS011;41245;45.384;20.390;2022-08-19T07:06:13;14.18;;;5.25;;
55364;SDS011;41245;45.384;20.390;2022-08-19T07:08:42;15.68;;;6.03;;
55364;SDS011;41245;45.384;20.390;2022-08-19T07:11:13;20.15;;;4.90;;
55364;SDS011;41245;45.384;20.390;2022-08-19T07:13:42;15.07;;;5.43;;
55364;SDS011;41245;45.384;20.390;2022-08-19T07:16:10;14.95;;;5.68;;
55364;SDS011;41245;45.384;20.390;2022-08-19T07:18:38;12.00;;;4.50;;
55364;SDS011;41245;45.384;20.390;2022-08-19T07:21:05;13.30;;;5.47;;
55364;SDS011;41245;45.384;20.390;2022-08-19T07:23:33;6.40;;;4.55;;
55364;SDS011;41245;45.384;20.390;2022-08-19T07:26:10;13.15;;;4.63;;
55364;SDS011;41245;45.384;20.390;2022-08-19T07:28:46;16.38;;;5.13;;
55364;SDS011;41245;45.384;20.390;2022-08-19T07:31:13;12.48;;;5.45;;
55364;SDS011;41245;45.384;20.390;2022-08-19T07:33:43;11.85;;;4.72;;
55364;SDS011;41245;45.384;20.390;2022-08-19T07:36:10;17.40;;;4.80;;
55364;SDS011;41245;45.384;20.390;2022-08-19T07:38:37;20.42;;;6.53;;
55364;SDS011;41245;45.384;20.390;2022-08-19T07:41:05;19.10;;;5.32;;
55364;SDS011;41245;45.384;20.390;2022-08-19T07:43:32;12.90;;;6.13;;
55364;SDS011;41245;45.384;20.390;2022-08-19T07:45:57;30.10;;;6.82;;
55364;SDS011;41245;45.384;20.390;2022-08-19T07:48:24;15.00;;;4.55;;
55364;SDS011;41245;45.384;20.390;2022-08-19T07:50:55;15.05;;;5.32;;
55364;SDS011;41245;45.384;20.390;2022-08-19T07:53:26;8.95;;;5.00;;
55364;SDS011;41245;45.384;20.390;2022-08-19T07:55:53;18.17;;;5.72;;
55364;SDS011;41245;45.384;20.390;2022-08-19T07:58:20;11.15;;;4.07;;
55364;SDS011;41245;45.384;20.390;2022-08-19T08:00:48;10.13;;;4.53;;
55364;SDS011;41245;45.384;20.390;2022-08-19T08:03:15;17.83;;;4.35;;
55364;SDS011;41245;45.384;20.390;2022-08-19T08:05:41;9.50;;;4.60;;
55364;SDS011;41245;45.384;20.390;2022-08-19T08:08:26;10.00;;;4.93;;
55364;SDS011;41245;45.384;20.390;2022-08-19T08:11:02;13.85;;;5.20;;
55364;SDS011;41245;45.384;20.390;2022-08-19T08:13:28;11.68;;;5.55;;
55364;SDS011;41245;45.384;20.390;2022-08-19T08:15:55;12.07;;;5.10;;
55364;SDS011;41245;45.384;20.390;2022-08-19T08:18:21;19.02;;;5.38;;
55364;SDS011;41245;45.384;20.390;2022-08-19T08:20:47;12.40;;;4.47;;
55364;SDS011;41245;45.384;20.390;2022-08-19T08:23:13;22.17;;;5.82;;
55364;SDS011;41245;45.384;20.390;2022-08-19T08:25:50;11.13;;;5.03;;
55364;SDS011;41245;45.384;20.390;2022-08-19T08:28:16;11.43;;;4.93;;
55364;SDS011;41245;45.384;20.390;2022-08-19T08:30:43;12.20;;;4.85;;
55364;SDS011;41245;45.384;20.390;2022-08-19T08:33:10;7.72;;;4.45;;
55364;SDS011;41245;45.384;20.390;2022-08-19T08:35:37;21.73;;;5.47;;
55364;SDS011;41245;45.384;20.390;2022-08-19T08:38:03;10.50;;;4.75;;
55364;SDS011;41245;45.384;20.390;2022-08-19T08:45:33;22.15;;;5.15;;
55364;SDS011;41245;45.384;20.390;2022-08-19T08:48:02;10.50;;;3.80;;
55364;SDS011;41245;45.384;20.390;2022-08-19T08:50:29;23.00;;;4.22;;
55364;SDS011;41245;45.384;20.390;2022-08-19T08:53:01;13.70;;;4.65;;
55364;SDS011;41245;45.384;20.390;2022-08-19T08:58:06;7.65;;;4.28;;
55364;SDS011;41245;45.384;20.390;2022-08-19T09:00:34;6.88;;;4.15;;
55364;SDS011;41245;45.384;20.390;2022-08-19T09:03:00;8.93;;;4.05;;
55364;SDS011;41245;45.384;20.390;2022-08-19T09:08:03;12.48;;;5.00;;
55364;SDS011;41245;45.384;20.390;2022-08-19T09:10:37;12.32;;;4.43;;
55364;SDS011;41245;45.384;20.390;2022-08-19T09:15:40;12.27;;;3.50;;
55364;SDS011;41245;45.384;20.390;2022-08-19T09:18:06;13.90;;;4.28;;
55364;SDS011;41245;45.384;20.390;2022-08-19T09:20:34;16.35;;;4.15;;
55364;SDS011;41245;45.384;20.390;2022-08-19T09:23:00;8.43;;;4.40;;
55364;SDS011;41245;45.384;20.390;2022-08-19T09:25:26;11.73;;;4.15;;
55364;SDS011;41245;45.384;20.390;2022-08-19T09:27:52;8.07;;;4.20;;
55364;SDS011;41245;45.384;20.390;2022-08-19T09:30:21;11.38;;;3.72;;
55364;SDS011;41245;45.384;20.390;2022-08-19T09:32:48;19.10;;;5.03;;
55364;SDS011;41245;45.384;20.390;2022-08-19T09:35:17;15.50;;;4.00;;
55364;SDS011;41245;45.384;20.390;2022-08-19T09:37:43;11.75;;;3.90;;
55364;SDS011;41245;45.384;20.390;2022-08-19T09:40:10;12.43;;;3.65;;
55364;SDS011;41245;45.384;20.390;2022-08-19T09:42:37;6.97;;;3.60;;
55364;SDS011;41245;45.384;20.390;2022-08-19T09:45:03;5.47;;;3.28;;
55364;SDS011;41245;45.384;20.390;2022-08-19T09:47:29;10.98;;;3.88;;
55364;SDS011;41245;45.384;20.390;2022-08-19T09:49:57;9.60;;;3.65;;
55364;SDS011;41245;45.384;20.390;2022-08-19T09:52:23;16.95;;;3.92;;
55364;SDS011;41245;45.384;20.390;2022-08-19T09:54:51;17.95;;;4.40;;
55364;SDS011;41245;45.384;20.390;2022-08-19T09:57:18;15.73;;;3.97;;
55364;SDS011;41245;45.384;20.390;2022-08-19T09:59:44;8.75;;;4.20;;
55364;SDS011;41245;45.384;20.390;2022-08-19T10:02:10;8.95;;;4.60;;
55364;SDS011;41245;45.384;20.390;2022-08-19T10:04:36;8.63;;;3.50;;
55364;SDS011;41245;45.384;20.390;2022-08-19T10:07:21;14.05;;;4.30;;
55364;SDS011;41245;45.384;20.390;2022-08-19T10:09:47;11.82;;;4.07;;
55364;SDS011;41245;45.384;20.390;2022-08-19T10:12:13;9.43;;;3.70;;
55364;SDS011;41245;45.384;20.390;2022-08-19T10:14:40;12.57;;;4.10;;
55364;SDS011;41245;45.384;20.390;2022-08-19T10:17:07;7.05;;;3.28;;
55364;SDS011;41245;45.384;20.390;2022-08-19T10:19:33;7.30;;;3.90;;
55364;SDS011;41245;45.384;20.390;2022-08-19T10:22:07;15.52;;;4.65;;
55364;SDS011;41245;45.384;20.390;2022-08-19T10:24:33;19.98;;;4.90;;
55364;SDS011;41245;45.384;20.390;2022-08-19T10:27:00;19.60;;;4.78;;
55364;SDS011;41245;45.384;20.390;2022-08-19T10:29:28;11.23;;;3.77;;
55364;SDS011;41245;45.384;20.390;2022-08-19T10:31:55;10.00;;;4.43;;
55364;SDS011;41245;45.384;20.390;2022-08-19T10:34:22;10.70;;;4.03;;
55364;SDS011;41245;45.384;20.390;2022-08-19T10:36:48;21.17;;;3.78;;
55364;SDS011;41245;45.384;20.390;2022-08-19T10:39:15;11.30;;;4.32;;
55364;SDS011;41245;45.384;20.390;2022-08-19T10:41:41;9.75;;;3.67;;
55364;SDS011;41245;45.384;20.390;2022-08-19T10:44:09;21.02;;;4.35;;
55364;SDS011;41245;45.384;20.390;2022-08-19T10:46:36;15.05;;;3.80;;
55364;SDS011;41245;45.384;20.390;2022-08-19T10:49:03;13.25;;;3.92;;
55364;SDS011;41245;45.384;20.390;2022-08-19T10:51:30;13.13;;;3.92;;
55364;SDS011;41245;45.384;20.390;2022-08-19T10:54:15;17.05;;;5.25;;
55364;SDS011;41245;45.384;20.390;2022-08-19T10:56:41;9.30;;;3.70;;
55364;SDS011;41245;45.384;20.390;2022-08-19T10:59:21;10.70;;;4.53;;
55364;SDS011;41245;45.384;20.390;2022-08-19T11:01:47;10.80;;;3.78;;
55364;SDS011;41245;45.384;20.390;2022-08-19T11:04:14;8.00;;;3.20;;
55364;SDS011;41245;45.384;20.390;2022-08-19T11:06:45;17.80;;;4.83;;
55364;SDS011;41245;45.384;20.390;2022-08-19T11:09:19;10.80;;;4.25;;
55364;SDS011;41245;45.384;20.390;2022-08-19T11:11:46;12.45;;;4.50;;
55364;SDS011;41245;45.384;20.390;2022-08-19T11:14:13;13.80;;;3.50;;
55364;SDS011;41245;45.384;20.390;2022-08-19T11:16:40;17.48;;;4.63;;
55364;SDS011;41245;45.384;20.390;2022-08-19T11:19:07;8.40;;;4.15;;
55364;SDS011;41245;45.384;20.390;2022-08-19T11:21:35;12.52;;;4.72;;
55364;SDS011;41245;45.384;20.390;2022-08-19T11:24:03;11.60;;;4.53;;
55364;SDS011;41245;45.384;20.390;2022-08-19T11:28:57;16.35;;;4.47;;
55364;SDS011;41245;45.384;20.390;2022-08-19T11:31:25;14.05;;;4.97;;
55364;SDS011;41245;45.384;20.390;2022-08-19T11:33:51;11.20;;;4.47;;
55364;SDS011;41245;45.384;20.390;2022-08-19T11:36:19;10.45;;;3.90;;
55364;SDS011;41245;45.384;20.390;2022-08-19T11:38:48;10.13;;;4.30;;
55364;SDS011;41245;45.384;20.390;2022-08-19T11:41:15;7.82;;;3.78;;
55364;SDS011;41245;45.384;20.390;2022-08-19T11:43:41;15.40;;;4.40;;
55364;SDS011;41245;45.384;20.390;2022-08-19T11:46:08;10.68;;;4.25;;
55364;SDS011;41245;45.384;20.390;2022-08-19T11:48:35;16.02;;;3.80;;
55364;SDS011;41245;45.384;20.390;2022-08-19T11:51:12;16.08;;;4.43;;
55364;SDS011;41245;45.384;20.390;2022-08-19T11:53:39;17.80;;;6.38;;
55364;SDS011;41245;45.384;20.390;2022-08-19T11:56:05;10.45;;;4.07;;
55364;SDS011;41245;45.384;20.390;2022-08-19T11:58:32;14.65;;;3.78;;
55364;SDS011;41245;45.384;20.390;2022-08-19T12:00:59;12.18;;;4.15;;
55364;SDS011;41245;45.384;20.390;2022-08-19T12:03:25;10.40;;;3.35;;
55364;SDS011;41245;45.384;20.390;2022-08-19T12:05:51;12.63;;;3.75;;
55364;SDS011;41245;45.384;20.390;2022-08-19T12:08:17;12.48;;;4.60;;
55364;SDS011;41245;45.384;20.390;2022-08-19T12:10:43;10.70;;;3.97;;
55364;SDS011;41245;45.384;20.390;2022-08-19T12:13:10;14.65;;;4.60;;
55364;SDS011;41245;45.384;20.390;2022-08-19T12:15:39;12.17;;;4.40;;
55364;SDS011;41245;45.384;20.390;2022-08-19T12:18:06;12.68;;;5.68;;
55364;SDS011;41245;45.384;20.390;2022-08-19T12:20:36;20.05;;;5.47;;
55364;SDS011;41245;45.384;20.390;2022-08-19T12:23:03;11.98;;;4.35;;
55364;SDS011;41245;45.384;20.390;2022-08-19T12:25:29;11.85;;;4.07;;
55364;SDS011;41245;45.384;20.390;2022-08-19T12:27:57;11.50;;;5.15;;
55364;SDS011;41245;45.384;20.390;2022-08-19T12:30:23;19.35;;;4.65;;
55364;SDS011;41245;45.384;20.390;2022-08-19T12:32:49;16.95;;;4.78;;
55364;SDS011;41245;45.384;20.390;2022-08-19T12:35:16;11.77;;;4.65;;
55364;SDS011;41245;45.384;20.390;2022-08-19T12:37:44;14.18;;;4.35;;
55364;SDS011;41245;45.384;20.390;2022-08-19T12:40:11;15.80;;;4.35;;
55364;SDS011;41245;45.384;20.390;2022-08-19T12:42:38;15.13;;;4.88;;
55364;SDS011;41245;45.384;20.390;2022-08-19T12:45:11;13.70;;;3.83;;
55364;SDS011;41245;45.384;20.390;2022-08-19T12:47:38;15.70;;;4.00;;
55364;SDS011;41245;45.384;20.390;2022-08-19T12:50:05;14.63;;;4.50;;
55364;SDS011;41245;45.384;20.390;2022-08-19T12:55:01;11.57;;;4.00;;
55364;SDS011;41245;45.384;20.390;2022-08-19T12:57:28;17.60;;;4.68;;
55364;SDS011;41245;45.384;20.390;2022-08-19T12:59:56;15.38;;;4.63;;
55364;SDS011;41245;45.384;20.390;2022-08-19T13:02:22;13.73;;;4.40;;
55364;SDS011;41245;45.384;20.390;2022-08-19T13:04:48;22.52;;;4.93;;
55364;SDS011;41245;45.384;20.390;2022-08-19T13:07:14;13.63;;;4.53;;
55364;SDS011;41245;45.384;20.390;2022-08-19T13:09:40;18.75;;;4.80;;
55364;SDS011;41245;45.384;20.390;2022-08-19T13:12:07;13.35;;;4.38;;
55364;SDS011;41245;45.384;20.390;2022-08-19T13:14:37;19.00;;;4.72;;
55364;SDS011;41245;45.384;20.390;2022-08-19T13:17:05;10.20;;;4.45;;
55364;SDS011;41245;45.384;20.390;2022-08-19T13:19:31;12.27;;;4.68;;
55364;SDS011;41245;45.384;20.390;2022-08-19T13:21:57;18.65;;;4.70;;
55364;SDS011;41245;45.384;20.390;2022-08-19T13:24:23;9.77;;;4.35;;
55364;SDS011;41245;45.384;20.390;2022-08-19T13:26:50;18.05;;;6.20;;
55364;SDS011;41245;45.384;20.390;2022-08-19T13:29:16;18.67;;;4.30;;
55364;SDS011;41245;45.384;20.390;2022-08-19T13:32:01;9.30;;;3.92;;
55364;SDS011;41245;45.384;20.390;2022-08-19T13:34:45;11.27;;;4.47;;
55364;SDS011;41245;45.384;20.390;2022-08-19T13:37:11;7.60;;;3.53;;
55364;SDS011;41245;45.384;20.390;2022-08-19T13:39:38;16.20;;;4.80;;
55364;SDS011;41245;45.384;20.390;2022-08-19T13:42:04;13.95;;;4.00;;
55364;SDS011;41245;45.384;20.390;2022-08-19T13:44:31;13.23;;;4.63;;
55364;SDS011;41245;45.384;20.390;2022-08-19T13:47:01;19.02;;;4.65;;
55364;SDS011;41245;45.384;20.390;2022-08-19T13:49:30;10.02;;;4.80;;
55364;SDS011;41245;45.384;20.390;2022-08-19T13:51:56;20.58;;;5.40;;
55364;SDS011;41245;45.384;20.390;2022-08-19T13:54:22;12.52;;;5.00;;
55364;SDS011;41245;45.384;20.390;2022-08-19T13:56:48;11.93;;;5.20;;
55364;SDS011;41245;45.384;20.390;2022-08-19T13:59:15;16.63;;;4.85;;
55364;SDS011;41245;45.384;20.390;2022-08-19T14:01:42;18.73;;;4.88;;
55364;SDS011;41245;45.384;20.390;2022-08-19T14:04:08;11.25;;;5.28;;
55364;SDS011;41245;45.384;20.390;2022-08-19T14:06:34;15.07;;;4.95;;
55364;SDS011;41245;45.384;20.390;2022-08-19T14:09:00;10.82;;;4.10;;
55364;SDS011;41245;45.384;20.390;2022-08-19T14:11:27;11.30;;;4.10;;
55364;SDS011;41245;45.384;20.390;2022-08-19T14:13:53;13.20;;;4.50;;
55364;SDS011;41245;45.384;20.390;2022-08-19T14:16:19;14.63;;;4.10;;
55364;SDS011;41245;45.384;20.390;2022-08-19T14:18:46;18.98;;;4.30;;
55364;SDS011;41245;45.384;20.390;2022-08-19T14:21:20;22.52;;;4.78;;
55364;SDS011;41245;45.384;20.390;2022-08-19T14:23:47;17.30;;;5.07;;
55364;SDS011;41245;45.384;20.390;2022-08-19T14:26:14;17.75;;;4.20;;
55364;SDS011;41245;45.384;20.390;2022-08-19T14:28:42;24.85;;;4.85;;
55364;SDS011;41245;45.384;20.390;2022-08-19T14:31:09;17.63;;;4.82;;
55364;SDS011;41245;45.384;20.390;2022-08-19T14:33:36;15.10;;;4.88;;
55364;SDS011;41245;45.384;20.390;2022-08-19T14:36:02;12.70;;;4.53;;
55364;SDS011;41245;45.384;20.390;2022-08-19T14:38:28;9.98;;;4.85;;
55364;SDS011;41245;45.384;20.390;2022-08-19T14:41:05;9.13;;;3.67;;
55364;SDS011;41245;45.384;20.390;2022-08-19T14:43:31;18.70;;;4.65;;
55364;SDS011;41245;45.384;20.390;2022-08-19T14:45:57;15.05;;;5.07;;
55364;SDS011;41245;45.384;20.390;2022-08-19T14:48:23;14.52;;;4.22;;
55364;SDS011;41245;45.384;20.390;2022-08-19T14:50:49;16.80;;;4.28;;
55364;SDS011;41245;45.384;20.390;2022-08-19T14:53:16;17.73;;;5.72;;
55364;SDS011;41245;45.384;20.390;2022-08-19T14:55:43;17.00;;;4.97;;
55364;SDS011;41245;45.384;20.390;2022-08-19T14:58:09;14.38;;;4.30;;